sensor_id;sensor_type;location;lat;lon;timestamp;P1;durP1;ratioP1;P2;durP2;ratioP2
21697;SDS011;11010;49.548;11.926;2022-08-30T00:02:30;7.97;;;2.50;;
21697;SDS011;11010;49.548;11.926;2022-08-30T00:04:57;9.75;;;2.70;;
21697;SDS011;11010;49.548;11.926;2022-08-30T00:07:27;9.25;;;2.30;;
21697;SDS011;11010;49.548;11.926;2022-08-30T00:09:55;8.90;;;2.60;;
21697;SDS011;11010;49.548;11.926;2022-08-30T00:12:22;9.57;;;2.67;;
21697;SDS011;11010;49.548;11.926;2022-08-30T00:14:50;8.70;;;2.67;;
21697;SDS011;11010;49.548;11.926;2022-08-30T00:17:18;8.88;;;2.40;;
21697;SDS011;11010;49.548;11.926;2022-08-30T00:19:46;10.52;;;2.40;;
21697;SDS011;11010;49.548;11.926;2022-08-30T00:22:13;7.40;;;2.42;;
21697;SDS011;11010;49.548;11.926;2022-08-30T00:24:41;9.32;;;2.80;;
21697;SDS011;11010;49.548;11.926;2022-08-30T00:27:10;8.38;;;2.40;;
21697;SDS011;11010;49.548;11.926;2022-08-30T00:29:37;8.18;;;2.50;;
21697;SDS011;11010;49.548;11.926;2022-08-30T00:32:05;8.30;;;2.22;;
21697;SDS011;11010;49.548;11.926;2022-08-30T00:34:33;8.65;;;2.67;;
21697;SDS011;11010;49.548;11.926;2022-08-30T00:37:00;7.93;;;2.35;;
21697;SDS011;11010;49.548;11.926;2022-08-30T00:39:28;8.45;;;2.70;;
21697;SDS011;11010;49.548;11.926;2022-08-30T00:41:56;9.60;;;2.78;;
21697;SDS011;11010;49.548;11.926;2022-08-30T00:44:23;8.02;;;2.50;;
21697;SDS011;11010;49.548;11.926;2022-08-30T00:46:51;9.45;;;2.67;;
21697;SDS011;11010;49.548;11.926;2022-08-30T00:49:18;8.90;;;2.55;;
21697;SDS011;11010;49.548;11.926;2022-08-30T00:51:46;8.02;;;2.53;;
21697;SDS011;11010;49.548;11.926;2022-08-30T00:54:17;8.45;;;2.47;;
21697;SDS011;11010;49.548;11.926;2022-08-30T00:56:45;8.00;;;2.50;;
21697;SDS011;11010;49.548;11.926;2022-08-30T00:59:14;7.18;;;2.20;;
21697;SDS011;11010;49.548;11.926;2022-08-30T01:01:42;8.55;;;2.42;;
21697;SDS011;11010;49.548;11.926;2022-08-30T01:04:09;7.75;;;2.30;;
21697;SDS011;11010;49.548;11.926;2022-08-30T01:06:39;9.77;;;2.60;;
21697;SDS011;11010;49.548;11.926;2022-08-30T01:09:07;9.23;;;2.72;;
21697;SDS011;11010;49.548;11.926;2022-08-30T01:11:35;9.00;;;2.30;;
21697;SDS011;11010;49.548;11.926;2022-08-30T01:14:04;8.00;;;2.33;;
21697;SDS011;11010;49.548;11.926;2022-08-30T01:16:33;9.07;;;2.55;;
21697;SDS011;11010;49.548;11.926;2022-08-30T01:19:01;8.68;;;2.58;;
21697;SDS011;11010;49.548;11.926;2022-08-30T01:21:47;9.68;;;2.60;;
21697;SDS011;11010;49.548;11.926;2022-08-30T01:24:16;10.00;;;2.80;;
21697;SDS011;11010;49.548;11.926;2022-08-30T01:26:44;7.43;;;2.22;;
21697;SDS011;11010;49.548;11.926;2022-08-30T01:29:14;8.07;;;2.42;;
21697;SDS011;11010;49.548;11.926;2022-08-30T01:31:44;9.65;;;2.42;;
21697;SDS011;11010;49.548;11.926;2022-08-30T01:34:11;8.32;;;2.40;;
21697;SDS011;11010;49.548;11.926;2022-08-30T01:36:39;7.72;;;2.35;;
21697;SDS011;11010;49.548;11.926;2022-08-30T01:39:11;7.07;;;2.40;;
21697;SDS011;11010;49.548;11.926;2022-08-30T01:41:39;12.30;;;2.47;;
21697;SDS011;11010;49.548;11.926;2022-08-30T01:44:07;7.75;;;2.50;;
21697;SDS011;11010;49.548;11.926;2022-08-30T01:46:38;8.38;;;2.60;;
21697;SDS011;11010;49.548;11.926;2022-08-30T01:49:10;9.25;;;2.58;;
21697;SDS011;11010;49.548;11.926;2022-08-30T01:51:38;8.85;;;2.72;;
21697;SDS011;11010;49.548;11.926;2022-08-30T01:54:06;9.38;;;2.50;;
21697;SDS011;11010;49.548;11.926;2022-08-30T01:56:34;8.48;;;2.50;;
21697;SDS011;11010;49.548;11.926;2022-08-30T01:59:01;10.15;;;2.90;;
21697;SDS011;11010;49.548;11.926;2022-08-30T02:01:30;8.40;;;2.30;;
21697;SDS011;11010;49.548;11.926;2022-08-30T02:03:59;8.32;;;2.50;;
21697;SDS011;11010;49.548;11.926;2022-08-30T02:06:26;8.07;;;2.40;;
21697;SDS011;11010;49.548;11.926;2022-08-30T02:08:54;9.60;;;2.35;;
21697;SDS011;11010;49.548;11.926;2022-08-30T02:11:21;8.48;;;2.60;;
21697;SDS011;11010;49.548;11.926;2022-08-30T02:13:49;7.65;;;2.30;;
21697;SDS011;11010;49.548;11.926;2022-08-30T02:16:18;10.38;;;2.60;;
21697;SDS011;11010;49.548;11.926;2022-08-30T02:18:49;9.27;;;2.40;;
21697;SDS011;11010;49.548;11.926;2022-08-30T02:21:16;8.20;;;2.30;;
21697;SDS011;11010;49.548;11.926;2022-08-30T02:23:44;8.15;;;2.60;;
21697;SDS011;11010;49.548;11.926;2022-08-30T02:26:12;8.00;;;2.60;;
21697;SDS011;11010;49.548;11.926;2022-08-30T02:28:40;8.38;;;2.28;;
21697;SDS011;11010;49.548;11.926;2022-08-30T02:31:15;7.50;;;2.30;;
21697;SDS011;11010;49.548;11.926;2022-08-30T02:33:47;11.00;;;2.70;;
21697;SDS011;11010;49.548;11.926;2022-08-30T02:36:16;9.50;;;2.20;;
21697;SDS011;11010;49.548;11.926;2022-08-30T02:38:43;7.93;;;2.35;;
21697;SDS011;11010;49.548;11.926;2022-08-30T02:41:12;9.55;;;2.67;;
21697;SDS011;11010;49.548;11.926;2022-08-30T02:43:39;9.38;;;2.40;;
21697;SDS011;11010;49.548;11.926;2022-08-30T02:46:07;8.23;;;2.72;;
21697;SDS011;11010;49.548;11.926;2022-08-30T02:48:35;9.13;;;2.45;;
21697;SDS011;11010;49.548;11.926;2022-08-30T02:51:04;7.78;;;2.53;;
21697;SDS011;11010;49.548;11.926;2022-08-30T02:53:36;8.70;;;2.63;;
21697;SDS011;11010;49.548;11.926;2022-08-30T02:56:04;8.07;;;2.55;;
21697;SDS011;11010;49.548;11.926;2022-08-30T02:58:31;8.13;;;2.40;;
21697;SDS011;11010;49.548;11.926;2022-08-30T03:00:59;7.70;;;2.60;;
21697;SDS011;11010;49.548;11.926;2022-08-30T03:03:27;10.15;;;2.47;;
21697;SDS011;11010;49.548;11.926;2022-08-30T03:05:54;10.30;;;2.70;;
21697;SDS011;11010;49.548;11.926;2022-08-30T03:08:22;7.95;;;2.40;;
21697;SDS011;11010;49.548;11.926;2022-08-30T03:10:50;8.30;;;2.53;;
21697;SDS011;11010;49.548;11.926;2022-08-30T03:13:18;6.95;;;2.17;;
21697;SDS011;11010;49.548;11.926;2022-08-30T03:15:45;9.40;;;2.60;;
21697;SDS011;11010;49.548;11.926;2022-08-30T03:18:17;8.15;;;2.40;;
21697;SDS011;11010;49.548;11.926;2022-08-30T03:20:45;8.55;;;2.50;;
21697;SDS011;11010;49.548;11.926;2022-08-30T03:23:20;8.50;;;2.40;;
21697;SDS011;11010;49.548;11.926;2022-08-30T03:25:48;8.90;;;2.58;;
21697;SDS011;11010;49.548;11.926;2022-08-30T03:28:16;9.50;;;2.42;;
21697;SDS011;11010;49.548;11.926;2022-08-30T03:30:44;9.93;;;2.60;;
21697;SDS011;11010;49.548;11.926;2022-08-30T03:33:12;8.63;;;2.70;;
21697;SDS011;11010;49.548;11.926;2022-08-30T03:35:40;9.77;;;2.70;;
21697;SDS011;11010;49.548;11.926;2022-08-30T03:38:08;10.07;;;2.60;;
21697;SDS011;11010;49.548;11.926;2022-08-30T03:40:35;8.93;;;2.70;;
21697;SDS011;11010;49.548;11.926;2022-08-30T03:43:03;8.68;;;2.38;;
21697;SDS011;11010;49.548;11.926;2022-08-30T03:45:32;8.05;;;2.28;;
21697;SDS011;11010;49.548;11.926;2022-08-30T03:48:00;8.48;;;2.38;;
21697;SDS011;11010;49.548;11.926;2022-08-30T03:50:28;9.05;;;2.75;;
21697;SDS011;11010;49.548;11.926;2022-08-30T03:52:56;8.32;;;2.20;;
21697;SDS011;11010;49.548;11.926;2022-08-30T03:55:27;9.73;;;2.50;;
21697;SDS011;11010;49.548;11.926;2022-08-30T03:57:55;8.48;;;2.45;;
21697;SDS011;11010;49.548;11.926;2022-08-30T04:00:23;8.20;;;2.50;;
21697;SDS011;11010;49.548;11.926;2022-08-30T04:02:51;8.05;;;2.28;;
21697;SDS011;11010;49.548;11.926;2022-08-30T04:05:18;8.35;;;2.47;;
21697;SDS011;11010;49.548;11.926;2022-08-30T04:07:46;9.23;;;2.45;;
21697;SDS011;11010;49.548;11.926;2022-08-30T04:10:14;7.35;;;2.20;;
21697;SDS011;11010;49.548;11.926;2022-08-30T04:12:42;8.90;;;2.47;;
21697;SDS011;11010;49.548;11.926;2022-08-30T04:15:15;8.20;;;2.40;;
21697;SDS011;11010;49.548;11.926;2022-08-30T04:17:43;8.10;;;2.25;;
21697;SDS011;11010;49.548;11.926;2022-08-30T04:20:10;7.82;;;2.50;;
21697;SDS011;11010;49.548;11.926;2022-08-30T04:22:38;7.93;;;2.40;;
21697;SDS011;11010;49.548;11.926;2022-08-30T04:25:06;8.23;;;2.50;;
21697;SDS011;11010;49.548;11.926;2022-08-30T04:27:41;9.32;;;2.50;;
21697;SDS011;11010;49.548;11.926;2022-08-30T04:30:08;7.03;;;2.08;;
21697;SDS011;11010;49.548;11.926;2022-08-30T04:32:37;9.43;;;2.75;;
21697;SDS011;11010;49.548;11.926;2022-08-30T04:35:05;8.32;;;2.67;;
21697;SDS011;11010;49.548;11.926;2022-08-30T04:37:33;8.60;;;2.40;;
21697;SDS011;11010;49.548;11.926;2022-08-30T04:40:00;7.57;;;2.30;;
21697;SDS011;11010;49.548;11.926;2022-08-30T04:42:30;12.18;;;2.90;;
21697;SDS011;11010;49.548;11.926;2022-08-30T04:45:00;8.50;;;2.58;;
21697;SDS011;11010;49.548;11.926;2022-08-30T04:47:27;9.68;;;2.60;;
21697;SDS011;11010;49.548;11.926;2022-08-30T04:49:55;9.63;;;2.55;;
21697;SDS011;11010;49.548;11.926;2022-08-30T04:52:23;8.75;;;2.40;;
21697;SDS011;11010;49.548;11.926;2022-08-30T04:54:54;9.98;;;2.70;;
21697;SDS011;11010;49.548;11.926;2022-08-30T04:57:22;9.50;;;2.60;;
21697;SDS011;11010;49.548;11.926;2022-08-30T04:59:50;9.70;;;2.60;;
21697;SDS011;11010;49.548;11.926;2022-08-30T05:02:17;8.68;;;2.58;;
21697;SDS011;11010;49.548;11.926;2022-08-30T05:04:45;8.32;;;2.75;;
21697;SDS011;11010;49.548;11.926;2022-08-30T05:07:32;9.15;;;2.50;;
21697;SDS011;11010;49.548;11.926;2022-08-30T05:10:00;8.40;;;2.35;;
21697;SDS011;11010;49.548;11.926;2022-08-30T05:12:30;8.27;;;2.13;;
21697;SDS011;11010;49.548;11.926;2022-08-30T05:14:57;8.32;;;2.60;;
21697;SDS011;11010;49.548;11.926;2022-08-30T05:17:25;7.65;;;2.40;;
21697;SDS011;11010;49.548;11.926;2022-08-30T05:19:53;8.13;;;2.30;;
21697;SDS011;11010;49.548;11.926;2022-08-30T05:22:20;8.35;;;2.58;;
21697;SDS011;11010;49.548;11.926;2022-08-30T05:24:48;8.98;;;2.63;;
21697;SDS011;11010;49.548;11.926;2022-08-30T05:27:15;8.77;;;2.47;;
21697;SDS011;11010;49.548;11.926;2022-08-30T05:29:45;8.07;;;2.30;;
21697;SDS011;11010;49.548;11.926;2022-08-30T05:32:13;8.48;;;2.60;;
21697;SDS011;11010;49.548;11.926;2022-08-30T05:34:40;8.75;;;2.70;;
21697;SDS011;11010;49.548;11.926;2022-08-30T05:37:08;8.43;;;2.40;;
21697;SDS011;11010;49.548;11.926;2022-08-30T05:39:37;8.88;;;2.35;;
21697;SDS011;11010;49.548;11.926;2022-08-30T05:42:17;7.97;;;2.33;;
21697;SDS011;11010;49.548;11.926;2022-08-30T05:44:45;9.55;;;2.88;;
21697;SDS011;11010;49.548;11.926;2022-08-30T05:47:13;8.30;;;2.17;;
21697;SDS011;11010;49.548;11.926;2022-08-30T05:49:40;8.40;;;2.20;;
21697;SDS011;11010;49.548;11.926;2022-08-30T05:52:08;8.32;;;2.88;;
21697;SDS011;11010;49.548;11.926;2022-08-30T05:54:38;8.23;;;2.60;;
21697;SDS011;11010;49.548;11.926;2022-08-30T05:57:05;8.20;;;2.38;;
21697;SDS011;11010;49.548;11.926;2022-08-30T05:59:33;9.05;;;2.65;;
21697;SDS011;11010;49.548;11.926;2022-08-30T06:02:01;10.52;;;2.38;;
21697;SDS011;11010;49.548;11.926;2022-08-30T06:04:29;10.45;;;2.72;;
21697;SDS011;11010;49.548;11.926;2022-08-30T06:06:57;7.80;;;2.40;;
21697;SDS011;11010;49.548;11.926;2022-08-30T06:09:25;9.95;;;3.10;;
21697;SDS011;11010;49.548;11.926;2022-08-30T06:11:52;8.40;;;2.67;;
21697;SDS011;11010;49.548;11.926;2022-08-30T06:14:20;9.43;;;2.60;;
21697;SDS011;11010;49.548;11.926;2022-08-30T06:16:48;8.98;;;2.33;;
21697;SDS011;11010;49.548;11.926;2022-08-30T06:19:16;9.00;;;2.72;;
21697;SDS011;11010;49.548;11.926;2022-08-30T06:21:48;9.98;;;2.53;;
21697;SDS011;11010;49.548;11.926;2022-08-30T06:24:16;8.23;;;2.63;;
21697;SDS011;11010;49.548;11.926;2022-08-30T06:26:45;10.63;;;2.50;;
21697;SDS011;11010;49.548;11.926;2022-08-30T06:29:14;8.98;;;2.50;;
21697;SDS011;11010;49.548;11.926;2022-08-30T06:31:43;9.63;;;2.50;;
21697;SDS011;11010;49.548;11.926;2022-08-30T06:34:11;9.63;;;2.53;;
21697;SDS011;11010;49.548;11.926;2022-08-30T06:36:39;9.13;;;2.70;;
21697;SDS011;11010;49.548;11.926;2022-08-30T06:39:06;9.20;;;2.80;;
21697;SDS011;11010;49.548;11.926;2022-08-30T06:41:35;9.07;;;2.72;;
21697;SDS011;11010;49.548;11.926;2022-08-30T06:44:09;8.57;;;2.38;;
21697;SDS011;11010;49.548;11.926;2022-08-30T06:46:37;9.93;;;2.60;;
21697;SDS011;11010;49.548;11.926;2022-08-30T06:49:05;8.00;;;2.60;;
21697;SDS011;11010;49.548;11.926;2022-08-30T06:51:34;9.52;;;2.80;;
21697;SDS011;11010;49.548;11.926;2022-08-30T06:54:06;9.55;;;2.72;;
21697;SDS011;11010;49.548;11.926;2022-08-30T06:56:37;10.15;;;2.78;;
21697;SDS011;11010;49.548;11.926;2022-08-30T06:59:23;9.73;;;2.70;;
21697;SDS011;11010;49.548;11.926;2022-08-30T07:01:52;8.82;;;2.45;;
21697;SDS011;11010;49.548;11.926;2022-08-30T07:04:20;8.90;;;2.65;;
21697;SDS011;11010;49.548;11.926;2022-08-30T07:06:47;9.38;;;2.55;;
21697;SDS011;11010;49.548;11.926;2022-08-30T07:09:15;9.75;;;3.10;;
21697;SDS011;11010;49.548;11.926;2022-08-30T07:11:43;10.57;;;2.92;;
21697;SDS011;11010;49.548;11.926;2022-08-30T07:14:10;8.77;;;2.75;;
21697;SDS011;11010;49.548;11.926;2022-08-30T07:16:38;10.40;;;3.40;;
21697;SDS011;11010;49.548;11.926;2022-08-30T07:19:05;9.00;;;2.65;;
21697;SDS011;11010;49.548;11.926;2022-08-30T07:21:45;10.98;;;2.83;;
21697;SDS011;11010;49.548;11.926;2022-08-30T07:24:14;8.85;;;2.85;;
21697;SDS011;11010;49.548;11.926;2022-08-30T07:26:44;10.05;;;3.20;;
21697;SDS011;11010;49.548;11.926;2022-08-30T07:29:15;8.35;;;2.58;;
21697;SDS011;11010;49.548;11.926;2022-08-30T07:31:43;11.25;;;3.10;;
21697;SDS011;11010;49.548;11.926;2022-08-30T07:34:11;10.43;;;3.03;;
21697;SDS011;11010;49.548;11.926;2022-08-30T07:36:39;9.13;;;2.72;;
21697;SDS011;11010;49.548;11.926;2022-08-30T07:39:06;8.98;;;2.72;;
21697;SDS011;11010;49.548;11.926;2022-08-30T07:41:35;8.50;;;2.65;;
21697;SDS011;11010;49.548;11.926;2022-08-30T07:44:07;10.10;;;3.10;;
21697;SDS011;11010;49.548;11.926;2022-08-30T07:46:38;8.80;;;3.05;;
21697;SDS011;11010;49.548;11.926;2022-08-30T07:49:06;10.82;;;3.20;;
21697;SDS011;11010;49.548;11.926;2022-08-30T07:51:37;8.48;;;2.90;;
21697;SDS011;11010;49.548;11.926;2022-08-30T07:54:05;11.27;;;3.15;;
21697;SDS011;11010;49.548;11.926;2022-08-30T07:56:32;10.25;;;3.42;;
21697;SDS011;11010;49.548;11.926;2022-08-30T07:59:00;11.35;;;3.42;;
21697;SDS011;11010;49.548;11.926;2022-08-30T08:01:28;9.93;;;3.35;;
21697;SDS011;11010;49.548;11.926;2022-08-30T08:03:55;8.90;;;3.10;;
21697;SDS011;11010;49.548;11.926;2022-08-30T08:06:23;11.13;;;3.88;;
21697;SDS011;11010;49.548;11.926;2022-08-30T08:08:51;9.98;;;3.47;;
21697;SDS011;11010;49.548;11.926;2022-08-30T08:11:20;10.00;;;3.50;;
21697;SDS011;11010;49.548;11.926;2022-08-30T08:13:49;11.30;;;3.85;;
21697;SDS011;11010;49.548;11.926;2022-08-30T08:16:26;11.25;;;3.70;;
21697;SDS011;11010;49.548;11.926;2022-08-30T08:18:55;9.85;;;3.40;;
21697;SDS011;11010;49.548;11.926;2022-08-30T08:21:23;10.27;;;3.45;;
21697;SDS011;11010;49.548;11.926;2022-08-30T08:23:51;10.20;;;3.72;;
21697;SDS011;11010;49.548;11.926;2022-08-30T08:26:19;10.43;;;3.90;;
21697;SDS011;11010;49.548;11.926;2022-08-30T08:28:47;11.05;;;4.28;;
21697;SDS011;11010;49.548;11.926;2022-08-30T08:31:20;9.88;;;3.67;;
21697;SDS011;11010;49.548;11.926;2022-08-30T08:33:58;12.07;;;4.00;;
21697;SDS011;11010;49.548;11.926;2022-08-30T08:36:31;11.85;;;4.50;;
21697;SDS011;11010;49.548;11.926;2022-08-30T08:38:59;9.85;;;3.83;;
21697;SDS011;11010;49.548;11.926;2022-08-30T08:41:35;10.10;;;3.90;;
21697;SDS011;11010;49.548;11.926;2022-08-30T08:44:12;12.65;;;4.32;;
21697;SDS011;11010;49.548;11.926;2022-08-30T08:46:47;11.40;;;3.95;;
21697;SDS011;11010;49.548;11.926;2022-08-30T08:49:15;9.77;;;3.75;;
21697;SDS011;11010;49.548;11.926;2022-08-30T08:51:43;12.40;;;4.38;;
21697;SDS011;11010;49.548;11.926;2022-08-30T08:54:35;11.57;;;3.95;;
21697;SDS011;11010;49.548;11.926;2022-08-30T08:57:05;11.07;;;3.85;;
21697;SDS011;11010;49.548;11.926;2022-08-30T08:59:35;11.40;;;3.92;;
21697;SDS011;11010;49.548;11.926;2022-08-30T09:02:18;9.77;;;4.10;;
21697;SDS011;11010;49.548;11.926;2022-08-30T09:04:49;11.80;;;4.15;;
21697;SDS011;11010;49.548;11.926;2022-08-30T09:07:21;10.00;;;3.70;;
21697;SDS011;11010;49.548;11.926;2022-08-30T09:09:50;10.95;;;4.28;;
21697;SDS011;11010;49.548;11.926;2022-08-30T09:12:17;13.73;;;4.22;;
21697;SDS011;11010;49.548;11.926;2022-08-30T09:14:51;14.55;;;4.07;;
21697;SDS011;11010;49.548;11.926;2022-08-30T09:17:21;9.70;;;3.97;;
21697;SDS011;11010;49.548;11.926;2022-08-30T09:22:35;11.07;;;4.15;;
21697;SDS011;11010;49.548;11.926;2022-08-30T09:25:05;10.20;;;4.10;;
21697;SDS011;11010;49.548;11.926;2022-08-30T09:27:54;12.02;;;4.00;;
21697;SDS011;11010;49.548;11.926;2022-08-30T09:30:25;11.60;;;4.15;;
21697;SDS011;11010;49.548;11.926;2022-08-30T09:32:58;11.75;;;3.90;;
21697;SDS011;11010;49.548;11.926;2022-08-30T09:38:07;10.18;;;3.85;;
21697;SDS011;11010;49.548;11.926;2022-08-30T09:43:08;10.93;;;4.28;;
21697;SDS011;11010;49.548;11.926;2022-08-30T09:45:39;10.45;;;4.05;;
21697;SDS011;11010;49.548;11.926;2022-08-30T09:51:35;11.20;;;3.80;;
21697;SDS011;11010;49.548;11.926;2022-08-30T09:53:52;10.38;;;3.60;;
21697;SDS011;11010;49.548;11.926;2022-08-30T10:02:17;9.43;;;3.63;;
21697;SDS011;11010;49.548;11.926;2022-08-30T10:04:56;10.48;;;3.35;;
21697;SDS011;11010;49.548;11.926;2022-08-30T10:07:31;9.45;;;3.45;;
21697;SDS011;11010;49.548;11.926;2022-08-30T10:10:02;10.73;;;3.78;;
21697;SDS011;11010;49.548;11.926;2022-08-30T10:15:20;10.30;;;3.70;;
21697;SDS011;11010;49.548;11.926;2022-08-30T10:17:59;8.77;;;3.38;;
21697;SDS011;11010;49.548;11.926;2022-08-30T10:20:32;10.43;;;3.05;;
21697;SDS011;11010;49.548;11.926;2022-08-30T10:23:05;8.68;;;3.00;;
21697;SDS011;11010;49.548;11.926;2022-08-30T10:25:37;10.75;;;3.00;;
21697;SDS011;11010;49.548;11.926;2022-08-30T10:30:35;11.35;;;2.80;;
21697;SDS011;11010;49.548;11.926;2022-08-30T10:33:07;11.07;;;2.90;;
21697;SDS011;11010;49.548;11.926;2022-08-30T10:35:39;10.52;;;2.85;;
21697;SDS011;11010;49.548;11.926;2022-08-30T10:38:31;8.50;;;2.70;;
21697;SDS011;11010;49.548;11.926;2022-08-30T10:40:58;8.13;;;2.72;;
21697;SDS011;11010;49.548;11.926;2022-08-30T10:43:54;8.18;;;2.72;;
21697;SDS011;11010;49.548;11.926;2022-08-30T10:48:50;8.45;;;2.75;;
21697;SDS011;11010;49.548;11.926;2022-08-30T10:51:23;8.73;;;2.60;;
21697;SDS011;11010;49.548;11.926;2022-08-30T10:53:52;7.53;;;2.63;;
21697;SDS011;11010;49.548;11.926;2022-08-30T10:56:22;8.40;;;2.90;;
21697;SDS011;11010;49.548;11.926;2022-08-30T10:58:51;8.25;;;2.88;;
21697;SDS011;11010;49.548;11.926;2022-08-30T11:09:24;8.75;;;2.97;;
21697;SDS011;11010;49.548;11.926;2022-08-30T11:14:21;8.15;;;2.83;;
21697;SDS011;11010;49.548;11.926;2022-08-30T11:16:52;8.40;;;2.95;;
21697;SDS011;11010;49.548;11.926;2022-08-30T11:19:37;8.35;;;2.65;;
21697;SDS011;11010;49.548;11.926;2022-08-30T11:22:13;9.77;;;2.70;;
21697;SDS011;11010;49.548;11.926;2022-08-30T11:25:04;9.93;;;3.08;;
21697;SDS011;11010;49.548;11.926;2022-08-30T11:27:52;8.70;;;2.60;;
21697;SDS011;11010;49.548;11.926;2022-08-30T11:33:01;8.23;;;2.78;;
21697;SDS011;11010;49.548;11.926;2022-08-30T11:35:47;8.55;;;2.97;;
21697;SDS011;11010;49.548;11.926;2022-08-30T11:38:16;9.02;;;2.80;;
21697;SDS011;11010;49.548;11.926;2022-08-30T11:40:49;9.32;;;2.83;;
21697;SDS011;11010;49.548;11.926;2022-08-30T11:43:52;7.35;;;2.47;;
21697;SDS011;11010;49.548;11.926;2022-08-30T11:46:13;7.43;;;2.53;;
21697;SDS011;11010;49.548;11.926;2022-08-30T11:48:43;9.52;;;2.65;;
21697;SDS011;11010;49.548;11.926;2022-08-30T11:53:57;7.40;;;2.35;;
21697;SDS011;11010;49.548;11.926;2022-08-30T11:56:27;8.13;;;2.80;;
21697;SDS011;11010;49.548;11.926;2022-08-30T12:01:44;10.75;;;2.63;;
21697;SDS011;11010;49.548;11.926;2022-08-30T12:11:51;9.43;;;2.83;;
21697;SDS011;11010;49.548;11.926;2022-08-30T12:17:00;8.80;;;2.63;;
21697;SDS011;11010;49.548;11.926;2022-08-30T12:19:47;9.02;;;2.63;;
21697;SDS011;11010;49.548;11.926;2022-08-30T12:22:16;8.05;;;2.55;;
21697;SDS011;11010;49.548;11.926;2022-08-30T12:24:46;9.60;;;2.67;;
21697;SDS011;11010;49.548;11.926;2022-08-30T12:29:51;8.63;;;2.50;;
21697;SDS011;11010;49.548;11.926;2022-08-30T12:32:18;8.25;;;2.67;;
21697;SDS011;11010;49.548;11.926;2022-08-30T12:34:49;8.57;;;2.35;;
21697;SDS011;11010;49.548;11.926;2022-08-30T12:39:58;8.35;;;2.55;;
21697;SDS011;11010;49.548;11.926;2022-08-30T12:42:27;7.57;;;2.30;;
21697;SDS011;11010;49.548;11.926;2022-08-30T12:44:57;8.02;;;2.42;;
21697;SDS011;11010;49.548;11.926;2022-08-30T12:47:27;9.10;;;2.55;;
21697;SDS011;11010;49.548;11.926;2022-08-30T12:49:56;9.00;;;2.78;;
21697;SDS011;11010;49.548;11.926;2022-08-30T12:54:52;8.25;;;2.60;;
21697;SDS011;11010;49.548;11.926;2022-08-30T12:57:39;8.13;;;2.53;;
21697;SDS011;11010;49.548;11.926;2022-08-30T13:00:08;7.68;;;2.72;;
21697;SDS011;11010;49.548;11.926;2022-08-30T13:02:41;9.45;;;2.60;;
21697;SDS011;11010;49.548;11.926;2022-08-30T13:05:29;7.60;;;2.40;;
21697;SDS011;11010;49.548;11.926;2022-08-30T13:08:11;8.20;;;2.58;;
21697;SDS011;11010;49.548;11.926;2022-08-30T13:13:36;7.95;;;2.65;;
21697;SDS011;11010;49.548;11.926;2022-08-30T13:18:44;7.68;;;2.53;;
21697;SDS011;11010;49.548;11.926;2022-08-30T13:21:29;8.85;;;2.63;;
21697;SDS011;11010;49.548;11.926;2022-08-30T13:23:58;9.55;;;2.35;;
21697;SDS011;11010;49.548;11.926;2022-08-30T13:26:28;7.20;;;2.17;;
21697;SDS011;11010;49.548;11.926;2022-08-30T13:28:57;6.75;;;2.40;;
21697;SDS011;11010;49.548;11.926;2022-08-30T13:31:25;8.00;;;2.40;;
21697;SDS011;11010;49.548;11.926;2022-08-30T13:33:55;7.93;;;2.40;;
21697;SDS011;11010;49.548;11.926;2022-08-30T13:36:30;7.30;;;2.45;;
21697;SDS011;11010;49.548;11.926;2022-08-30T13:38:59;7.50;;;2.38;;
21697;SDS011;11010;49.548;11.926;2022-08-30T13:41:27;8.27;;;2.40;;
21697;SDS011;11010;49.548;11.926;2022-08-30T13:44:00;9.25;;;2.40;;
21697;SDS011;11010;49.548;11.926;2022-08-30T13:46:54;7.32;;;2.60;;
21697;SDS011;11010;49.548;11.926;2022-08-30T13:49:43;7.18;;;2.28;;
21697;SDS011;11010;49.548;11.926;2022-08-30T13:52:13;6.97;;;2.25;;
21697;SDS011;11010;49.548;11.926;2022-08-30T13:54:51;9.13;;;2.40;;
21697;SDS011;11010;49.548;11.926;2022-08-30T13:57:20;7.45;;;2.20;;
21697;SDS011;11010;49.548;11.926;2022-08-30T14:00:10;7.65;;;2.35;;
21697;SDS011;11010;49.548;11.926;2022-08-30T14:02:41;8.40;;;2.58;;
21697;SDS011;11010;49.548;11.926;2022-08-30T14:05:17;9.32;;;2.70;;
21697;SDS011;11010;49.548;11.926;2022-08-30T14:08:05;8.40;;;2.40;;
21697;SDS011;11010;49.548;11.926;2022-08-30T14:10:55;7.13;;;2.20;;
21697;SDS011;11010;49.548;11.926;2022-08-30T14:13:23;8.40;;;2.67;;
21697;SDS011;11010;49.548;11.926;2022-08-30T14:15:55;9.00;;;2.50;;
21697;SDS011;11010;49.548;11.926;2022-08-30T14:18:43;8.20;;;2.65;;
21697;SDS011;11010;49.548;11.926;2022-08-30T14:21:10;7.43;;;2.03;;
21697;SDS011;11010;49.548;11.926;2022-08-30T14:23:38;7.40;;;2.05;;
21697;SDS011;11010;49.548;11.926;2022-08-30T14:26:12;7.68;;;2.80;;
21697;SDS011;11010;49.548;11.926;2022-08-30T14:28:43;9.25;;;2.42;;
21697;SDS011;11010;49.548;11.926;2022-08-30T14:31:10;8.82;;;2.67;;
21697;SDS011;11010;49.548;11.926;2022-08-30T14:33:38;7.95;;;2.47;;
21697;SDS011;11010;49.548;11.926;2022-08-30T14:36:06;8.30;;;2.50;;
21697;SDS011;11010;49.548;11.926;2022-08-30T14:38:41;7.63;;;2.65;;
21697;SDS011;11010;49.548;11.926;2022-08-30T14:41:09;8.20;;;2.50;;
21697;SDS011;11010;49.548;11.926;2022-08-30T14:43:38;8.93;;;2.80;;
21697;SDS011;11010;49.548;11.926;2022-08-30T14:46:07;10.38;;;2.85;;
21697;SDS011;11010;49.548;11.926;2022-08-30T14:48:36;6.95;;;2.30;;
21697;SDS011;11010;49.548;11.926;2022-08-30T14:51:13;6.85;;;2.20;;
21697;SDS011;11010;49.548;11.926;2022-08-30T14:53:42;7.68;;;2.45;;
21697;SDS011;11010;49.548;11.926;2022-08-30T14:56:12;8.57;;;2.55;;
21697;SDS011;11010;49.548;11.926;2022-08-30T14:58:39;8.32;;;2.65;;
21697;SDS011;11010;49.548;11.926;2022-08-30T15:01:08;8.20;;;2.35;;
21697;SDS011;11010;49.548;11.926;2022-08-30T15:03:38;8.15;;;2.22;;
21697;SDS011;11010;49.548;11.926;2022-08-30T15:06:07;7.72;;;2.55;;
21697;SDS011;11010;49.548;11.926;2022-08-30T15:08:36;8.82;;;2.55;;
21697;SDS011;11010;49.548;11.926;2022-08-30T15:11:11;9.43;;;2.92;;
21697;SDS011;11010;49.548;11.926;2022-08-30T15:13:40;9.38;;;2.90;;
21697;SDS011;11010;49.548;11.926;2022-08-30T15:18:38;7.80;;;2.42;;
21697;SDS011;11010;49.548;11.926;2022-08-30T15:21:07;7.70;;;2.78;;
21697;SDS011;11010;49.548;11.926;2022-08-30T15:23:35;8.23;;;2.53;;
21697;SDS011;11010;49.548;11.926;2022-08-30T15:26:05;8.07;;;2.65;;
21697;SDS011;11010;49.548;11.926;2022-08-30T15:28:34;9.52;;;3.05;;
21697;SDS011;11010;49.548;11.926;2022-08-30T15:31:02;8.50;;;2.63;;
21697;SDS011;11010;49.548;11.926;2022-08-30T15:33:35;7.75;;;2.67;;
21697;SDS011;11010;49.548;11.926;2022-08-30T15:36:03;8.77;;;3.00;;
21697;SDS011;11010;49.548;11.926;2022-08-30T15:38:31;8.38;;;2.65;;
21697;SDS011;11010;49.548;11.926;2022-08-30T15:41:00;8.25;;;2.67;;
21697;SDS011;11010;49.548;11.926;2022-08-30T15:43:29;7.80;;;2.78;;
21697;SDS011;11010;49.548;11.926;2022-08-30T15:46:34;8.40;;;2.83;;
21697;SDS011;11010;49.548;11.926;2022-08-30T15:48:57;8.25;;;2.70;;
21697;SDS011;11010;49.548;11.926;2022-08-30T15:51:25;7.88;;;2.25;;
21697;SDS011;11010;49.548;11.926;2022-08-30T15:53:56;9.40;;;2.78;;
21697;SDS011;11010;49.548;11.926;2022-08-30T15:56:24;8.38;;;2.75;;
21697;SDS011;11010;49.548;11.926;2022-08-30T15:58:51;10.23;;;2.55;;
21697;SDS011;11010;49.548;11.926;2022-08-30T16:01:19;7.82;;;2.85;;